sensor_id;sensor_type;location;lat;lon;timestamp;temperature;humidity
851;DHT22;412;51.400;7.480;2024-02-16T00:00:24;15.40;99.90
851;DHT22;412;51.400;7.480;2024-02-16T00:02:50;15.40;99.90
851;DHT22;412;51.400;7.480;2024-02-16T00:05:16;15.40;99.90
851;DHT22;412;51.400;7.480;2024-02-16T00:07:42;15.50;99.90
851;DHT22;412;51.400;7.480;2024-02-16T00:10:08;15.50;99.90
851;DHT22;412;51.400;7.480;2024-02-16T00:12:35;15.40;99.90
851;DHT22;412;51.400;7.480;2024-02-16T00:15:02;15.40;99.90
851;DHT22;412;51.400;7.480;2024-02-16T00:17:28;15.30;99.90
851;DHT22;412;51.400;7.480;2024-02-16T00:19:55;15.40;99.90
851;DHT22;412;51.400;7.480;2024-02-16T00:22:21;15.40;99.90
851;DHT22;412;51.400;7.480;2024-02-16T00:24:47;15.40;99.90
851;DHT22;412;51.400;7.480;2024-02-16T00:27:14;15.30;99.90
851;DHT22;412;51.400;7.480;2024-02-16T00:29:40;15.30;99.90
851;DHT22;412;51.400;7.480;2024-02-16T00:32:06;15.30;99.90
851;DHT22;412;51.400;7.480;2024-02-16T00:34:36;15.40;99.90
851;DHT22;412;51.400;7.480;2024-02-16T00:37:02;15.40;99.90
851;DHT22;412;51.400;7.480;2024-02-16T00:39:30;15.40;99.90
851;DHT22;412;51.400;7.480;2024-02-16T00:41:56;15.30;99.90
851;DHT22;412;51.400;7.480;2024-02-16T00:44:22;15.40;99.90
851;DHT22;412;51.400;7.480;2024-02-16T00:46:47;15.40;99.90
851;DHT22;412;51.400;7.480;2024-02-16T00:49:13;15.40;99.90
851;DHT22;412;51.400;7.480;2024-02-16T00:51:40;15.30;99.90
851;DHT22;412;51.400;7.480;2024-02-16T00:54:06;15.40;99.90
851;DHT22;412;51.400;7.480;2024-02-16T00:56:32;15.40;99.90
851;DHT22;412;51.400;7.480;2024-02-16T00:58:58;15.40;99.90
851;DHT22;412;51.400;7.480;2024-02-16T01:01:24;15.40;99.90
851;DHT22;412;51.400;7.480;2024-02-16T01:03:52;15.50;99.90
851;DHT22;412;51.400;7.480;2024-02-16T01:06:19;15.50;99.90
851;DHT22;412;51.400;7.480;2024-02-16T01:08:45;15.50;99.90
851;DHT22;412;51.400;7.480;2024-02-16T01:11:12;15.60;99.90
851;DHT22;412;51.400;7.480;2024-02-16T01:13:39;15.60;99.90
851;DHT22;412;51.400;7.480;2024-02-16T01:16:05;15.70;99.90
851;DHT22;412;51.400;7.480;2024-02-16T01:18:31;15.70;99.90
851;DHT22;412;51.400;7.480;2024-02-16T01:20:58;15.70;99.90
851;DHT22;412;51.400;7.480;2024-02-16T01:23:24;15.80;99.90
851;DHT22;412;51.400;7.480;2024-02-16T01:25:50;15.70;99.90
851;DHT22;412;51.400;7.480;2024-02-16T01:28:16;15.80;99.90
851;DHT22;412;51.400;7.480;2024-02-16T01:30:42;15.80;99.90
851;DHT22;412;51.400;7.480;2024-02-16T01:33:08;15.80;99.90
851;DHT22;412;51.400;7.480;2024-02-16T01:35:34;15.80;99.90
851;DHT22;412;51.400;7.480;2024-02-16T01:38:00;15.80;99.90
851;DHT22;412;51.400;7.480;2024-02-16T01:40:27;15.70;99.90
851;DHT22;412;51.400;7.480;2024-02-16T01:42:53;15.50;99.90
851;DHT22;412;51.400;7.480;2024-02-16T01:45:20;15.60;99.90
851;DHT22;412;51.400;7.480;2024-02-16T01:47:48;15.60;99.90
851;DHT22;412;51.400;7.480;2024-02-16T01:50:16;15.40;99.90
851;DHT22;412;51.400;7.480;2024-02-16T01:52:46;15.20;99.90
851;DHT22;412;51.400;7.480;2024-02-16T01:55:12;15.20;99.90
851;DHT22;412;51.400;7.480;2024-02-16T01:57:39;15.20;99.90
851;DHT22;412;51.400;7.480;2024-02-16T02:00:05;15.10;99.90
851;DHT22;412;51.400;7.480;2024-02-16T02:02:34;15.10;99.90
851;DHT22;412;51.400;7.480;2024-02-16T02:05:00;15.10;99.90
851;DHT22;412;51.400;7.480;2024-02-16T02:07:26;15.00;99.90
851;DHT22;412;51.400;7.480;2024-02-16T02:09:52;15.00;99.90
851;DHT22;412;51.400;7.480;2024-02-16T02:12:18;15.10;99.90
851;DHT22;412;51.400;7.480;2024-02-16T02:14:44;15.10;99.90
851;DHT22;412;51.400;7.480;2024-02-16T02:17:10;15.10;99.90
851;DHT22;412;51.400;7.480;2024-02-16T02:19:36;15.20;99.90
851;DHT22;412;51.400;7.480;2024-02-16T02:22:02;15.20;99.90
851;DHT22;412;51.400;7.480;2024-02-16T02:24:27;15.30;99.90
851;DHT22;412;51.400;7.480;2024-02-16T02:26:53;15.20;99.90
851;DHT22;412;51.400;7.480;2024-02-16T02:29:20;15.10;99.90
851;DHT22;412;51.400;7.480;2024-02-16T02:31:46;15.10;99.90
851;DHT22;412;51.400;7.480;2024-02-16T02:34:12;15.20;99.90
851;DHT22;412;51.400;7.480;2024-02-16T02:36:37;15.10;99.90
851;DHT22;412;51.400;7.480;2024-02-16T02:39:03;15.00;99.90
851;DHT22;412;51.400;7.480;2024-02-16T02:41:29;15.10;99.90
851;DHT22;412;51.400;7.480;2024-02-16T02:43:55;15.10;99.90
851;DHT22;412;51.400;7.480;2024-02-16T02:46:22;15.20;99.90
851;DHT22;412;51.400;7.480;2024-02-16T02:48:50;15.30;99.90
851;DHT22;412;51.400;7.480;2024-02-16T02:51:16;15.20;99.90
851;DHT22;412;51.400;7.480;2024-02-16T02:53:42;15.20;99.90
851;DHT22;412;51.400;7.480;2024-02-16T02:56:09;15.20;99.90
851;DHT22;412;51.400;7.480;2024-02-16T02:58:34;15.30;99.90
851;DHT22;412;51.400;7.480;2024-02-16T03:01:00;15.30;99.90
851;DHT22;412;51.400;7.480;2024-02-16T03:03:26;15.20;99.90
851;DHT22;412;51.400;7.480;2024-02-16T03:05:51;15.30;99.90
851;DHT22;412;51.400;7.480;2024-02-16T03:08:17;15.30;99.90
851;DHT22;412;51.400;7.480;2024-02-16T03:10:43;15.40;99.90
851;DHT22;412;51.400;7.480;2024-02-16T03:13:10;15.30;99.90
851;DHT22;412;51.400;7.480;2024-02-16T03:15:38;15.20;99.90
851;DHT22;412;51.400;7.480;2024-02-16T03:18:05;15.30;99.90
851;DHT22;412;51.400;7.480;2024-02-16T03:20:34;15.30;99.90
851;DHT22;412;51.400;7.480;2024-02-16T03:23:01;15.30;99.90
851;DHT22;412;51.400;7.480;2024-02-16T03:25:27;15.20;99.90
851;DHT22;412;51.400;7.480;2024-02-16T03:27:52;15.20;99.90
851;DHT22;412;51.400;7.480;2024-02-16T03:30:19;15.30;99.90
851;DHT22;412;51.400;7.480;2024-02-16T03:32:51;15.40;99.90
851;DHT22;412;51.400;7.480;2024-02-16T03:35:18;15.30;99.90
851;DHT22;412;51.400;7.480;2024-02-16T03:37:44;15.30;99.90
851;DHT22;412;51.400;7.480;2024-02-16T03:40:10;15.40;99.90
851;DHT22;412;51.400;7.480;2024-02-16T03:42:40;15.50;99.90
851;DHT22;412;51.400;7.480;2024-02-16T03:45:07;15.50;99.90
851;DHT22;412;51.400;7.480;2024-02-16T03:47:32;15.50;99.90
851;DHT22;412;51.400;7.480;2024-02-16T03:49:58;15.60;99.90
851;DHT22;412;51.400;7.480;2024-02-16T03:52:24;15.50;99.90
851;DHT22;412;51.400;7.480;2024-02-16T03:54:51;15.40;99.90
851;DHT22;412;51.400;7.480;2024-02-16T03:57:17;15.40;99.90
851;DHT22;412;51.400;7.480;2024-02-16T03:59:43;15.40;99.90
851;DHT22;412;51.400;7.480;2024-02-16T04:02:10;15.50;99.90
851;DHT22;412;51.400;7.480;2024-02-16T04:04:36;15.50;99.90
851;DHT22;412;51.400;7.480;2024-02-16T04:07:02;15.50;99.90
851;DHT22;412;51.400;7.480;2024-02-16T04:09:28;15.40;99.90
851;DHT22;412;51.400;7.480;2024-02-16T04:11:53;15.40;99.90
851;DHT22;412;51.400;7.480;2024-02-16T04:14:19;15.30;99.90
851;DHT22;412;51.400;7.480;2024-02-16T04:16:45;15.40;99.90
851;DHT22;412;51.400;7.480;2024-02-16T04:19:11;15.40;99.90
851;DHT22;412;51.400;7.480;2024-02-16T04:21:36;15.50;99.90
851;DHT22;412;51.400;7.480;2024-02-16T04:24:02;15.50;99.90
851;DHT22;412;51.400;7.480;2024-02-16T04:26:28;15.50;99.90
851;DHT22;412;51.400;7.480;2024-02-16T04:28:54;15.50;99.90
851;DHT22;412;51.400;7.480;2024-02-16T04:31:20;15.50;99.90
851;DHT22;412;51.400;7.480;2024-02-16T04:33:46;15.30;99.90
851;DHT22;412;51.400;7.480;2024-02-16T04:36:12;15.30;99.90
851;DHT22;412;51.400;7.480;2024-02-16T04:38:37;15.40;99.90
851;DHT22;412;51.400;7.480;2024-02-16T04:41:06;15.30;99.90
851;DHT22;412;51.400;7.480;2024-02-16T04:43:33;15.30;99.90
851;DHT22;412;51.400;7.480;2024-02-16T04:46:00;15.30;99.90
851;DHT22;412;51.400;7.480;2024-02-16T04:48:25;15.20;99.90
851;DHT22;412;51.400;7.480;2024-02-16T04:50:51;15.20;99.90
851;DHT22;412;51.400;7.480;2024-02-16T04:53:17;15.20;99.90
851;DHT22;412;51.400;7.480;2024-02-16T04:55:43;15.10;99.90
851;DHT22;412;51.400;7.480;2024-02-16T04:58:08;15.10;99.90
851;DHT22;412;51.400;7.480;2024-02-16T05:00:36;15.20;99.90
851;DHT22;412;51.400;7.480;2024-02-16T05:03:02;15.20;99.90
851;DHT22;412;51.400;7.480;2024-02-16T05:05:28;15.20;99.90
851;DHT22;412;51.400;7.480;2024-02-16T05:07:54;15.30;99.90
851;DHT22;412;51.400;7.480;2024-02-16T05:10:20;15.30;99.90
851;DHT22;412;51.400;7.480;2024-02-16T05:12:46;15.20;99.90
851;DHT22;412;51.400;7.480;2024-02-16T05:15:11;15.30;99.90
851;DHT22;412;51.400;7.480;2024-02-16T05:17:41;15.30;99.90
851;DHT22;412;51.400;7.480;2024-02-16T05:20:10;15.40;99.90
851;DHT22;412;51.400;7.480;2024-02-16T05:22:42;15.40;99.90
851;DHT22;412;51.400;7.480;2024-02-16T05:25:09;15.50;99.90
851;DHT22;412;51.400;7.480;2024-02-16T05:27:36;15.50;99.90
851;DHT22;412;51.400;7.480;2024-02-16T05:30:04;15.50;99.90
851;DHT22;412;51.400;7.480;2024-02-16T05:32:36;15.60;99.90
851;DHT22;412;51.400;7.480;2024-02-16T05:35:06;15.60;99.90
851;DHT22;412;51.400;7.480;2024-02-16T05:37:47;15.60;99.90
851;DHT22;412;51.400;7.480;2024-02-16T05:40:20;15.60;99.90
851;DHT22;412;51.400;7.480;2024-02-16T05:42:53;15.60;99.90
851;DHT22;412;51.400;7.480;2024-02-16T05:45:20;15.60;99.90
851;DHT22;412;51.400;7.480;2024-02-16T05:47:49;15.60;99.90
851;DHT22;412;51.400;7.480;2024-02-16T05:50:15;15.60;99.90
851;DHT22;412;51.400;7.480;2024-02-16T05:52:42;15.70;99.90
851;DHT22;412;51.400;7.480;2024-02-16T05:55:08;15.70;99.90
851;DHT22;412;51.400;7.480;2024-02-16T05:57:35;15.70;99.90
851;DHT22;412;51.400;7.480;2024-02-16T06:00:02;15.60;99.90
851;DHT22;412;51.400;7.480;2024-02-16T06:02:30;15.60;99.90
851;DHT22;412;51.400;7.480;2024-02-16T06:04:56;15.60;99.90
851;DHT22;412;51.400;7.480;2024-02-16T06:07:23;15.50;99.90
851;DHT22;412;51.400;7.480;2024-02-16T06:09:48;15.60;99.90
851;DHT22;412;51.400;7.480;2024-02-16T06:12:14;15.60;99.90
851;DHT22;412;51.400;7.480;2024-02-16T06:14:41;15.60;99.90
851;DHT22;412;51.400;7.480;2024-02-16T06:17:08;15.70;99.90
851;DHT22;412;51.400;7.480;2024-02-16T06:19:35;15.70;99.90
851;DHT22;412;51.400;7.480;2024-02-16T06:22:00;15.70;99.90
851;DHT22;412;51.400;7.480;2024-02-16T06:24:26;15.60;99.90
851;DHT22;412;51.400;7.480;2024-02-16T06:26:53;15.60;99.90
851;DHT22;412;51.400;7.480;2024-02-16T06:29:20;15.50;99.90
851;DHT22;412;51.400;7.480;2024-02-16T06:31:46;15.60;99.90
851;DHT22;412;51.400;7.480;2024-02-16T06:34:14;15.60;99.90
851;DHT22;412;51.400;7.480;2024-02-16T06:36:40;15.60;99.90
851;DHT22;412;51.400;7.480;2024-02-16T06:39:06;15.70;99.90
851;DHT22;412;51.400;7.480;2024-02-16T06:41:31;15.70;99.90
851;DHT22;412;51.400;7.480;2024-02-16T06:43:57;15.70;99.90
851;DHT22;412;51.400;7.480;2024-02-16T06:46:23;15.70;99.90
851;DHT22;412;51.400;7.480;2024-02-16T06:48:50;15.70;99.90
851;DHT22;412;51.400;7.480;2024-02-16T06:51:17;15.60;99.90
851;DHT22;412;51.400;7.480;2024-02-16T06:53:43;15.60;99.90
851;DHT22;412;51.400;7.480;2024-02-16T06:56:09;15.60;99.90
851;DHT22;412;51.400;7.480;2024-02-16T06:58:35;15.70;99.90
851;DHT22;412;51.400;7.480;2024-02-16T07:01:03;15.70;99.90
851;DHT22;412;51.400;7.480;2024-02-16T07:03:29;15.70;99.90
851;DHT22;412;51.400;7.480;2024-02-16T07:05:55;15.70;99.90
851;DHT22;412;51.400;7.480;2024-02-16T07:08:20;15.70;99.90
851;DHT22;412;51.400;7.480;2024-02-16T07:10:49;15.70;99.90
851;DHT22;412;51.400;7.480;2024-02-16T07:13:17;15.70;99.90
851;DHT22;412;51.400;7.480;2024-02-16T07:15:43;15.70;99.90
851;DHT22;412;51.400;7.480;2024-02-16T07:18:09;15.50;99.90
851;DHT22;412;51.400;7.480;2024-02-16T07:20:35;15.50;99.90
851;DHT22;412;51.400;7.480;2024-02-16T07:23:02;15.40;99.90
851;DHT22;412;51.400;7.480;2024-02-16T07:25:28;15.50;99.90
851;DHT22;412;51.400;7.480;2024-02-16T07:27:54;15.50;99.90
851;DHT22;412;51.400;7.480;2024-02-16T07:30:20;15.50;99.90
851;DHT22;412;51.400;7.480;2024-02-16T07:32:49;15.60;99.90
851;DHT22;412;51.400;7.480;2024-02-16T07:35:16;15.60;99.90
851;DHT22;412;51.400;7.480;2024-02-16T07:37:42;15.60;99.90
851;DHT22;412;51.400;7.480;2024-02-16T07:40:09;15.60;99.90
851;DHT22;412;51.400;7.480;2024-02-16T07:42:39;15.60;99.90
851;DHT22;412;51.400;7.480;2024-02-16T07:45:06;15.60;99.90
851;DHT22;412;51.400;7.480;2024-02-16T07:47:32;15.70;99.90
851;DHT22;412;51.400;7.480;2024-02-16T07:49:58;15.70;99.90
851;DHT22;412;51.400;7.480;2024-02-16T07:52:23;15.70;99.90
851;DHT22;412;51.400;7.480;2024-02-16T07:54:49;15.70;99.90
851;DHT22;412;51.400;7.480;2024-02-16T07:57:17;15.70;99.90
851;DHT22;412;51.400;7.480;2024-02-16T07:59:43;15.70;99.90
851;DHT22;412;51.400;7.480;2024-02-16T08:02:09;15.70;99.90
851;DHT22;412;51.400;7.480;2024-02-16T08:04:41;15.60;99.90
851;DHT22;412;51.400;7.480;2024-02-16T08:07:07;15.70;99.90
851;DHT22;412;51.400;7.480;2024-02-16T08:09:33;15.70;99.90
851;DHT22;412;51.400;7.480;2024-02-16T08:11:59;15.70;99.90
851;DHT22;412;51.400;7.480;2024-02-16T08:14:25;15.70;99.90
851;DHT22;412;51.400;7.480;2024-02-16T08:16:52;15.70;99.90
851;DHT22;412;51.400;7.480;2024-02-16T08:19:17;15.80;99.90
851;DHT22;412;51.400;7.480;2024-02-16T08:21:43;15.70;99.90
851;DHT22;412;51.400;7.480;2024-02-16T08:24:09;15.80;99.90
851;DHT22;412;51.400;7.480;2024-02-16T08:26:35;15.70;99.90
851;DHT22;412;51.400;7.480;2024-02-16T08:29:01;15.80;99.90
851;DHT22;412;51.400;7.480;2024-02-16T08:31:26;15.70;99.90
851;DHT22;412;51.400;7.480;2024-02-16T08:33:52;15.70;99.90
851;DHT22;412;51.400;7.480;2024-02-16T08:36:18;15.70;99.90
851;DHT22;412;51.400;7.480;2024-02-16T08:38:46;15.80;99.90
851;DHT22;412;51.400;7.480;2024-02-16T08:41:12;15.80;99.90
851;DHT22;412;51.400;7.480;2024-02-16T08:43:38;15.90;99.90
851;DHT22;412;51.400;7.480;2024-02-16T08:46:04;16.10;99.90
851;DHT22;412;51.400;7.480;2024-02-16T08:48:30;16.30;99.90
851;DHT22;412;51.400;7.480;2024-02-16T08:50:56;16.40;99.90
851;DHT22;412;51.400;7.480;2024-02-16T08:53:22;16.40;99.90
851;DHT22;412;51.400;7.480;2024-02-16T08:55:48;16.50;99.90
851;DHT22;412;51.400;7.480;2024-02-16T08:58:14;16.60;99.90
851;DHT22;412;51.400;7.480;2024-02-16T09:00:39;16.60;99.90
851;DHT22;412;51.400;7.480;2024-02-16T09:03:05;16.50;99.90
851;DHT22;412;51.400;7.480;2024-02-16T09:05:32;16.50;99.90
851;DHT22;412;51.400;7.480;2024-02-16T09:07:57;16.50;99.90
851;DHT22;412;51.400;7.480;2024-02-16T09:10:23;16.50;99.90
851;DHT22;412;51.400;7.480;2024-02-16T09:12:49;16.50;99.90
851;DHT22;412;51.400;7.480;2024-02-16T09:15:17;16.50;99.90
851;DHT22;412;51.400;7.480;2024-02-16T09:17:43;16.50;99.90
851;DHT22;412;51.400;7.480;2024-02-16T09:20:10;16.50;99.90
851;DHT22;412;51.400;7.480;2024-02-16T09:22:38;16.50;99.90
851;DHT22;412;51.400;7.480;2024-02-16T09:25:04;16.50;99.90
851;DHT22;412;51.400;7.480;2024-02-16T09:27:30;16.40;99.90
851;DHT22;412;51.400;7.480;2024-02-16T09:29:56;16.30;99.90
851;DHT22;412;51.400;7.480;2024-02-16T09:32:22;16.30;99.90
851;DHT22;412;51.400;7.480;2024-02-16T09:34:48;16.20;99.90
851;DHT22;412;51.400;7.480;2024-02-16T09:37:14;16.10;99.90
851;DHT22;412;51.400;7.480;2024-02-16T09:39:39;16.20;99.90
851;DHT22;412;51.400;7.480;2024-02-16T09:42:06;16.10;99.90
851;DHT22;412;51.400;7.480;2024-02-16T09:44:35;16.20;99.90
851;DHT22;412;51.400;7.480;2024-02-16T09:47:01;16.10;99.90
851;DHT22;412;51.400;7.480;2024-02-16T09:49:27;16.10;99.90
851;DHT22;412;51.400;7.480;2024-02-16T09:51:56;16.00;99.90
851;DHT22;412;51.400;7.480;2024-02-16T09:54:25;16.10;99.90
851;DHT22;412;51.400;7.480;2024-02-16T09:56:50;16.20;99.90
851;DHT22;412;51.400;7.480;2024-02-16T09:59:16;16.20;99.90
851;DHT22;412;51.400;7.480;2024-02-16T10:01:42;16.10;99.90
851;DHT22;412;51.400;7.480;2024-02-16T10:04:09;16.20;99.90
851;DHT22;412;51.400;7.480;2024-02-16T10:06:55;16.20;99.90
851;DHT22;412;51.400;7.480;2024-02-16T10:09:28;16.20;99.90
851;DHT22;412;51.400;7.480;2024-02-16T10:11:58;16.30;99.90
851;DHT22;412;51.400;7.480;2024-02-16T10:14:23;16.30;99.90
851;DHT22;412;51.400;7.480;2024-02-16T10:17:05;16.40;99.90
851;DHT22;412;51.400;7.480;2024-02-16T10:19:32;16.40;99.90
851;DHT22;412;51.400;7.480;2024-02-16T10:22:11;16.50;99.90
851;DHT22;412;51.400;7.480;2024-02-16T10:24:38;16.40;99.90
851;DHT22;412;51.400;7.480;2024-02-16T10:27:14;16.40;99.90
851;DHT22;412;51.400;7.480;2024-02-16T10:29:43;16.40;99.90
851;DHT22;412;51.400;7.480;2024-02-16T10:32:11;16.30;99.90
851;DHT22;412;51.400;7.480;2024-02-16T10:34:37;16.30;99.90
851;DHT22;412;51.400;7.480;2024-02-16T10:37:05;16.20;99.90
851;DHT22;412;51.400;7.480;2024-02-16T10:39:32;16.20;99.90
851;DHT22;412;51.400;7.480;2024-02-16T10:41:59;16.30;99.90
851;DHT22;412;51.400;7.480;2024-02-16T10:44:27;16.30;99.90
851;DHT22;412;51.400;7.480;2024-02-16T10:46:54;16.30;99.90
851;DHT22;412;51.400;7.480;2024-02-16T10:49:23;16.30;99.90
851;DHT22;412;51.400;7.480;2024-02-16T10:51:53;16.30;99.90
851;DHT22;412;51.400;7.480;2024-02-16T10:54:25;16.30;99.90
851;DHT22;412;51.400;7.480;2024-02-16T10:56:53;16.30;99.90
851;DHT22;412;51.400;7.480;2024-02-16T10:59:20;16.20;99.90
851;DHT22;412;51.400;7.480;2024-02-16T11:01:46;16.30;99.90
851;DHT22;412;51.400;7.480;2024-02-16T11:04:16;16.30;99.90
851;DHT22;412;51.400;7.480;2024-02-16T11:06:53;16.30;99.90
851;DHT22;412;51.400;7.480;2024-02-16T11:09:29;16.40;99.90
851;DHT22;412;51.400;7.480;2024-02-16T11:12:02;16.40;99.90
851;DHT22;412;51.400;7.480;2024-02-16T11:14:42;16.40;99.90
851;DHT22;412;51.400;7.480;2024-02-16T11:17:09;16.30;99.90
851;DHT22;412;51.400;7.480;2024-02-16T11:19:35;16.30;99.90
851;DHT22;412;51.400;7.480;2024-02-16T11:22:05;16.30;99.90
851;DHT22;412;51.400;7.480;2024-02-16T11:24:52;16.40;99.90
851;DHT22;412;51.400;7.480;2024-02-16T11:27:18;16.30;99.90
851;DHT22;412;51.400;7.480;2024-02-16T11:29:45;16.40;99.90
851;DHT22;412;51.400;7.480;2024-02-16T11:32:11;16.40;99.90
851;DHT22;412;51.400;7.480;2024-02-16T11:34:37;16.40;99.90
851;DHT22;412;51.400;7.480;2024-02-16T11:37:06;16.50;99.90
851;DHT22;412;51.400;7.480;2024-02-16T11:39:32;16.70;99.90
851;DHT22;412;51.400;7.480;2024-02-16T11:44:34;16.80;99.90
851;DHT22;412;51.400;7.480;2024-02-16T11:47:01;17.00;99.90
851;DHT22;412;51.400;7.480;2024-02-16T11:49:29;17.00;99.90
851;DHT22;412;51.400;7.480;2024-02-16T11:51:55;17.10;99.90
851;DHT22;412;51.400;7.480;2024-02-16T11:54:21;17.10;99.90
851;DHT22;412;51.400;7.480;2024-02-16T11:56:48;17.10;99.90
851;DHT22;412;51.400;7.480;2024-02-16T11:59:17;17.10;99.90
851;DHT22;412;51.400;7.480;2024-02-16T12:01:50;17.20;99.90
851;DHT22;412;51.400;7.480;2024-02-16T12:04:21;17.10;99.90
851;DHT22;412;51.400;7.480;2024-02-16T12:06:47;17.20;99.90
851;DHT22;412;51.400;7.480;2024-02-16T12:09:16;17.20;99.90
851;DHT22;412;51.400;7.480;2024-02-16T12:11:48;17.20;99.90
851;DHT22;412;51.400;7.480;2024-02-16T12:14:14;17.30;99.90
851;DHT22;412;51.400;7.480;2024-02-16T12:16:40;17.30;99.90
851;DHT22;412;51.400;7.480;2024-02-16T12:19:05;17.30;99.90
851;DHT22;412;51.400;7.480;2024-02-16T12:21:31;17.30;99.90
851;DHT22;412;51.400;7.480;2024-02-16T12:23:57;17.10;99.90
851;DHT22;412;51.400;7.480;2024-02-16T12:26:23;17.20;99.90
851;DHT22;412;51.400;7.480;2024-02-16T12:28:49;17.20;99.90
851;DHT22;412;51.400;7.480;2024-02-16T12:31:21;17.20;99.90
851;DHT22;412;51.400;7.480;2024-02-16T12:33:47;17.20;99.90
851;DHT22;412;51.400;7.480;2024-02-16T12:36:13;17.20;99.90
851;DHT22;412;51.400;7.480;2024-02-16T12:38:40;17.20;99.90
851;DHT22;412;51.400;7.480;2024-02-16T12:41:06;17.20;99.90
851;DHT22;412;51.400;7.480;2024-02-16T12:43:32;17.30;99.90
851;DHT22;412;51.400;7.480;2024-02-16T12:45:58;17.30;99.90
851;DHT22;412;51.400;7.480;2024-02-16T12:48:27;17.10;99.90
851;DHT22;412;51.400;7.480;2024-02-16T12:50:54;17.20;99.90
851;DHT22;412;51.400;7.480;2024-02-16T12:53:20;17.20;99.90
851;DHT22;412;51.400;7.480;2024-02-16T12:55:46;17.20;99.90
851;DHT22;412;51.400;7.480;2024-02-16T12:58:13;17.20;99.90
851;DHT22;412;51.400;7.480;2024-02-16T13:00:39;17.10;99.90
851;DHT22;412;51.400;7.480;2024-02-16T13:03:05;17.10;99.90
851;DHT22;412;51.400;7.480;2024-02-16T13:05:31;17.10;99.90
851;DHT22;412;51.400;7.480;2024-02-16T13:07:58;17.00;99.90
851;DHT22;412;51.400;7.480;2024-02-16T13:10:24;16.90;99.90
851;DHT22;412;51.400;7.480;2024-02-16T13:12:50;16.90;99.90
851;DHT22;412;51.400;7.480;2024-02-16T13:15:16;16.90;99.90
851;DHT22;412;51.400;7.480;2024-02-16T13:17:42;16.90;99.90
851;DHT22;412;51.400;7.480;2024-02-16T13:20:08;16.90;99.90
851;DHT22;412;51.400;7.480;2024-02-16T13:22:35;16.90;99.90
851;DHT22;412;51.400;7.480;2024-02-16T13:25:05;16.90;99.90
851;DHT22;412;51.400;7.480;2024-02-16T13:27:34;17.00;99.90
851;DHT22;412;51.400;7.480;2024-02-16T13:30:00;17.00;99.90
851;DHT22;412;51.400;7.480;2024-02-16T13:32:27;16.70;99.90
851;DHT22;412;51.400;7.480;2024-02-16T13:34:53;16.60;99.90
851;DHT22;412;51.400;7.480;2024-02-16T13:37:18;16.60;99.90
851;DHT22;412;51.400;7.480;2024-02-16T13:39:44;16.50;99.90
851;DHT22;412;51.400;7.480;2024-02-16T13:42:11;16.40;99.90
851;DHT22;412;51.400;7.480;2024-02-16T13:44:38;16.40;99.90
851;DHT22;412;51.400;7.480;2024-02-16T13:47:04;16.20;99.90
851;DHT22;412;51.400;7.480;2024-02-16T13:49:30;16.20;99.90
851;DHT22;412;51.400;7.480;2024-02-16T13:51:55;16.10;99.90
851;DHT22;412;51.400;7.480;2024-02-16T13:54:25;16.00;99.90
851;DHT22;412;51.400;7.480;2024-02-16T13:56:51;16.00;99.90
851;DHT22;412;51.400;7.480;2024-02-16T13:59:17;15.90;99.90
851;DHT22;412;51.400;7.480;2024-02-16T14:01:43;15.90;99.90
851;DHT22;412;51.400;7.480;2024-02-16T14:04:09;15.90;99.90
851;DHT22;412;51.400;7.480;2024-02-16T14:06:35;15.90;99.90
851;DHT22;412;51.400;7.480;2024-02-16T14:09:01;15.90;99.90
851;DHT22;412;51.400;7.480;2024-02-16T14:11:37;15.90;99.90
851;DHT22;412;51.400;7.480;2024-02-16T14:14:04;15.80;99.90
851;DHT22;412;51.400;7.480;2024-02-16T14:16:30;15.80;99.90
851;DHT22;412;51.400;7.480;2024-02-16T14:18:56;15.80;99.90
851;DHT22;412;51.400;7.480;2024-02-16T14:21:22;15.80;99.90
851;DHT22;412;51.400;7.480;2024-02-16T14:23:48;15.80;99.90
851;DHT22;412;51.400;7.480;2024-02-16T14:26:13;15.80;99.90
851;DHT22;412;51.400;7.480;2024-02-16T14:28:39;15.80;99.90
851;DHT22;412;51.400;7.480;2024-02-16T14:31:05;15.80;99.90
851;DHT22;412;51.400;7.480;2024-02-16T14:33:32;15.80;99.90
851;DHT22;412;51.400;7.480;2024-02-16T14:35:58;15.80;99.90
851;DHT22;412;51.400;7.480;2024-02-16T14:38:24;15.80;99.90
851;DHT22;412;51.400;7.480;2024-02-16T14:40:49;15.80;99.90
851;DHT22;412;51.400;7.480;2024-02-16T14:43:15;15.80;99.90
851;DHT22;412;51.400;7.480;2024-02-16T14:45:41;15.80;99.90
851;DHT22;412;51.400;7.480;2024-02-16T14:48:07;15.70;99.90
851;DHT22;412;51.400;7.480;2024-02-16T14:50:33;15.80;99.90
851;DHT22;412;51.400;7.480;2024-02-16T14:53:00;15.80;99.90
851;DHT22;412;51.400;7.480;2024-02-16T14:55:27;15.80;99.90
851;DHT22;412;51.400;7.480;2024-02-16T14:57:53;15.80;99.90
851;DHT22;412;51.400;7.480;2024-02-16T15:00:19;15.70;99.90
851;DHT22;412;51.400;7.480;2024-02-16T15:02:45;15.70;99.90
851;DHT22;412;51.400;7.480;2024-02-16T15:05:13;15.70;99.90
851;DHT22;412;51.400;7.480;2024-02-16T15:07:39;15.60;99.90
851;DHT22;412;51.400;7.480;2024-02-16T15:10:05;15.60;99.90
851;DHT22;412;51.400;7.480;2024-02-16T15:12:31;15.60;99.90
851;DHT22;412;51.400;7.480;2024-02-16T15:14:57;15.50;99.90
851;DHT22;412;51.400;7.480;2024-02-16T15:17:22;15.60;99.90
851;DHT22;412;51.400;7.480;2024-02-16T15:19:48;15.60;99.90
851;DHT22;412;51.400;7.480;2024-02-16T15:22:14;15.60;99.90
851;DHT22;412;51.400;7.480;2024-02-16T15:24:40;15.60;99.90
851;DHT22;412;51.400;7.480;2024-02-16T15:27:05;15.60;99.90
851;DHT22;412;51.400;7.480;2024-02-16T15:29:32;15.60;99.90
851;DHT22;412;51.400;7.480;2024-02-16T15:31:58;15.60;99.90
851;DHT22;412;51.400;7.480;2024-02-16T15:34:25;15.60;99.90
851;DHT22;412;51.400;7.480;2024-02-16T15:36:51;15.60;99.90
851;DHT22;412;51.400;7.480;2024-02-16T15:39:16;15.60;99.90
851;DHT22;412;51.400;7.480;2024-02-16T15:41:43;15.60;99.90
851;DHT22;412;51.400;7.480;2024-02-16T15:44:08;15.60;99.90
851;DHT22;412;51.400;7.480;2024-02-16T15:46:36;15.60;99.90
851;DHT22;412;51.400;7.480;2024-02-16T15:49:03;15.60;99.90
851;DHT22;412;51.400;7.480;2024-02-16T15:51:29;15.60;99.90
851;DHT22;412;51.400;7.480;2024-02-16T15:53:55;15.60;99.90
851;DHT22;412;51.400;7.480;2024-02-16T15:56:21;15.60;99.90
851;DHT22;412;51.400;7.480;2024-02-16T15:58:47;15.50;99.90
851;DHT22;412;51.400;7.480;2024-02-16T16:01:13;15.50;99.90
851;DHT22;412;51.400;7.480;2024-02-16T16:03:39;15.40;99.90
851;DHT22;412;51.400;7.480;2024-02-16T16:06:05;15.30;99.90
851;DHT22;412;51.400;7.480;2024-02-16T16:08:30;15.20;99.90
851;DHT22;412;51.400;7.480;2024-02-16T16:10:56;15.20;99.90
851;DHT22;412;51.400;7.480;2024-02-16T16:13:23;15.10;99.90
851;DHT22;412;51.400;7.480;2024-02-16T16:15:49;15.20;99.90
851;DHT22;412;51.400;7.480;2024-02-16T16:18:15;15.70;99.90
851;DHT22;412;51.400;7.480;2024-02-16T16:20:41;16.10;99.90
851;DHT22;412;51.400;7.480;2024-02-16T16:23:07;16.40;99.90
851;DHT22;412;51.400;7.480;2024-02-16T16:25:34;16.80;99.90
851;DHT22;412;51.400;7.480;2024-02-16T16:28:00;17.20;99.90
851;DHT22;412;51.400;7.480;2024-02-16T16:30:26;17.40;99.90
851;DHT22;412;51.400;7.480;2024-02-16T16:32:52;17.50;99.90